sensor_id;sensor_type;location;lat;lon;timestamp;P1;durP1;ratioP1;P2;durP2;ratioP2
79478;SDS011;68943;49.472;17.970;2023-04-06T00:01:39;30.02;;;17.58;;
79478;SDS011;68943;49.472;17.970;2023-04-06T00:04:06;34.08;;;18.25;;
79478;SDS011;68943;49.472;17.970;2023-04-06T00:06:32;35.47;;;16.77;;
79478;SDS011;68943;49.472;17.970;2023-04-06T00:08:58;35.75;;;18.63;;
79478;SDS011;68943;49.472;17.970;2023-04-06T00:11:25;25.85;;;16.48;;
79478;SDS011;68943;49.472;17.970;2023-04-06T00:13:51;32.55;;;16.98;;
79478;SDS011;68943;49.472;17.970;2023-04-06T00:16:20;40.13;;;20.17;;
79478;SDS011;68943;49.472;17.970;2023-04-06T00:18:46;31.77;;;16.05;;
79478;SDS011;68943;49.472;17.970;2023-04-06T00:21:12;33.47;;;16.63;;
79478;SDS011;68943;49.472;17.970;2023-04-06T00:23:39;32.22;;;16.30;;
79478;SDS011;68943;49.472;17.970;2023-04-06T00:26:05;30.80;;;15.93;;
79478;SDS011;68943;49.472;17.970;2023-04-06T00:28:31;26.98;;;15.20;;
79478;SDS011;68943;49.472;17.970;2023-04-06T00:30:57;31.13;;;16.90;;
79478;SDS011;68943;49.472;17.970;2023-04-06T00:33:25;24.48;;;14.82;;
79478;SDS011;68943;49.472;17.970;2023-04-06T00:35:51;25.55;;;14.93;;
79478;SDS011;68943;49.472;17.970;2023-04-06T00:38:17;23.20;;;13.02;;
79478;SDS011;68943;49.472;17.970;2023-04-06T00:40:43;23.00;;;12.48;;
79478;SDS011;68943;49.472;17.970;2023-04-06T00:43:09;24.77;;;12.80;;
79478;SDS011;68943;49.472;17.970;2023-04-06T00:45:37;26.42;;;13.77;;
79478;SDS011;68943;49.472;17.970;2023-04-06T00:48:03;28.38;;;13.82;;
79478;SDS011;68943;49.472;17.970;2023-04-06T00:50:30;23.90;;;13.18;;
79478;SDS011;68943;49.472;17.970;2023-04-06T00:52:58;26.73;;;13.73;;
79478;SDS011;68943;49.472;17.970;2023-04-06T00:55:24;26.42;;;13.40;;
79478;SDS011;68943;49.472;17.970;2023-04-06T00:57:51;29.33;;;14.77;;
79478;SDS011;68943;49.472;17.970;2023-04-06T01:00:20;32.50;;;14.95;;
79478;SDS011;68943;49.472;17.970;2023-04-06T01:02:47;25.65;;;16.23;;
79478;SDS011;68943;49.472;17.970;2023-04-06T01:05:14;29.10;;;16.38;;
79478;SDS011;68943;49.472;17.970;2023-04-06T01:07:40;34.78;;;17.17;;
79478;SDS011;68943;49.472;17.970;2023-04-06T01:10:06;27.90;;;14.65;;
79478;SDS011;68943;49.472;17.970;2023-04-06T01:12:32;29.33;;;18.23;;
79478;SDS011;68943;49.472;17.970;2023-04-06T01:14:58;39.47;;;19.70;;
79478;SDS011;68943;49.472;17.970;2023-04-06T01:17:26;32.65;;;16.98;;
79478;SDS011;68943;49.472;17.970;2023-04-06T01:19:53;37.25;;;16.88;;
79478;SDS011;68943;49.472;17.970;2023-04-06T01:22:19;29.42;;;15.70;;
79478;SDS011;68943;49.472;17.970;2023-04-06T01:24:46;30.38;;;14.77;;
79478;SDS011;68943;49.472;17.970;2023-04-06T01:27:13;26.13;;;13.65;;
79478;SDS011;68943;49.472;17.970;2023-04-06T01:29:39;31.63;;;16.95;;
79478;SDS011;68943;49.472;17.970;2023-04-06T01:32:06;29.60;;;16.05;;
79478;SDS011;68943;49.472;17.970;2023-04-06T01:34:32;34.05;;;18.63;;
79478;SDS011;68943;49.472;17.970;2023-04-06T01:36:58;34.13;;;16.60;;
79478;SDS011;68943;49.472;17.970;2023-04-06T01:39:25;32.90;;;16.67;;
79478;SDS011;68943;49.472;17.970;2023-04-06T01:41:51;34.70;;;17.50;;
79478;SDS011;68943;49.472;17.970;2023-04-06T01:44:17;28.52;;;16.38;;
79478;SDS011;68943;49.472;17.970;2023-04-06T01:46:44;32.88;;;16.80;;
79478;SDS011;68943;49.472;17.970;2023-04-06T01:49:10;31.88;;;17.15;;
79478;SDS011;68943;49.472;17.970;2023-04-06T01:51:36;28.85;;;16.48;;
79478;SDS011;68943;49.472;17.970;2023-04-06T01:54:03;32.35;;;16.48;;
79478;SDS011;68943;49.472;17.970;2023-04-06T01:56:29;32.20;;;16.25;;
79478;SDS011;68943;49.472;17.970;2023-04-06T01:58:55;32.15;;;15.40;;
79478;SDS011;68943;49.472;17.970;2023-04-06T02:01:21;36.25;;;17.13;;
79478;SDS011;68943;49.472;17.970;2023-04-06T02:03:47;34.05;;;16.85;;
79478;SDS011;68943;49.472;17.970;2023-04-06T02:06:13;31.83;;;16.60;;
79478;SDS011;68943;49.472;17.970;2023-04-06T02:08:39;28.00;;;15.82;;
79478;SDS011;68943;49.472;17.970;2023-04-06T02:11:05;30.48;;;17.00;;
79478;SDS011;68943;49.472;17.970;2023-04-06T02:13:31;32.72;;;17.70;;
79478;SDS011;68943;49.472;17.970;2023-04-06T02:15:57;31.77;;;14.82;;
79478;SDS011;68943;49.472;17.970;2023-04-06T02:18:23;33.42;;;16.80;;
79478;SDS011;68943;49.472;17.970;2023-04-06T02:20:49;33.67;;;15.60;;
79478;SDS011;68943;49.472;17.970;2023-04-06T02:23:16;35.05;;;16.15;;
79478;SDS011;68943;49.472;17.970;2023-04-06T02:25:42;32.50;;;18.90;;
79478;SDS011;68943;49.472;17.970;2023-04-06T02:28:08;37.78;;;16.58;;
79478;SDS011;68943;49.472;17.970;2023-04-06T02:30:35;33.53;;;16.25;;
79478;SDS011;68943;49.472;17.970;2023-04-06T02:33:01;33.05;;;16.58;;
79478;SDS011;68943;49.472;17.970;2023-04-06T02:35:27;35.00;;;17.25;;
79478;SDS011;68943;49.472;17.970;2023-04-06T02:37:54;35.88;;;16.25;;
79478;SDS011;68943;49.472;17.970;2023-04-06T02:40:20;30.60;;;15.98;;
79478;SDS011;68943;49.472;17.970;2023-04-06T02:42:46;24.52;;;14.57;;
79478;SDS011;68943;49.472;17.970;2023-04-06T02:45:12;27.92;;;15.10;;
79478;SDS011;68943;49.472;17.970;2023-04-06T02:47:38;24.10;;;13.77;;
79478;SDS011;68943;49.472;17.970;2023-04-06T02:50:04;28.35;;;14.13;;
79478;SDS011;68943;49.472;17.970;2023-04-06T02:52:31;28.60;;;14.13;;
79478;SDS011;68943;49.472;17.970;2023-04-06T02:54:57;28.02;;;14.23;;
79478;SDS011;68943;49.472;17.970;2023-04-06T02:57:23;25.45;;;13.25;;
79478;SDS011;68943;49.472;17.970;2023-04-06T02:59:49;24.95;;;14.13;;
79478;SDS011;68943;49.472;17.970;2023-04-06T03:02:15;24.75;;;13.02;;
79478;SDS011;68943;49.472;17.970;2023-04-06T03:04:42;25.00;;;13.73;;
79478;SDS011;68943;49.472;17.970;2023-04-06T03:07:09;24.75;;;12.85;;
79478;SDS011;68943;49.472;17.970;2023-04-06T03:09:36;23.10;;;11.82;;
79478;SDS011;68943;49.472;17.970;2023-04-06T03:12:02;22.25;;;12.50;;
79478;SDS011;68943;49.472;17.970;2023-04-06T03:14:28;33.08;;;16.15;;
79478;SDS011;68943;49.472;17.970;2023-04-06T03:16:55;34.58;;;18.08;;
79478;SDS011;68943;49.472;17.970;2023-04-06T03:19:22;29.38;;;15.93;;
79478;SDS011;68943;49.472;17.970;2023-04-06T03:21:48;29.15;;;14.57;;
79478;SDS011;68943;49.472;17.970;2023-04-06T03:24:14;24.15;;;13.15;;
79478;SDS011;68943;49.472;17.970;2023-04-06T03:26:40;23.25;;;12.75;;
79478;SDS011;68943;49.472;17.970;2023-04-06T03:29:06;23.90;;;12.43;;
79478;SDS011;68943;49.472;17.970;2023-04-06T03:31:32;22.00;;;11.32;;
79478;SDS011;68943;49.472;17.970;2023-04-06T03:33:58;18.55;;;11.98;;
79478;SDS011;68943;49.472;17.970;2023-04-06T03:36:24;20.10;;;11.02;;
79478;SDS011;68943;49.472;17.970;2023-04-06T03:38:51;24.00;;;11.65;;
79478;SDS011;68943;49.472;17.970;2023-04-06T03:41:18;20.25;;;11.25;;
79478;SDS011;68943;49.472;17.970;2023-04-06T03:43:44;24.30;;;12.23;;
79478;SDS011;68943;49.472;17.970;2023-04-06T03:46:10;24.95;;;12.23;;
79478;SDS011;68943;49.472;17.970;2023-04-06T03:48:36;22.35;;;12.35;;
79478;SDS011;68943;49.472;17.970;2023-04-06T03:51:02;22.98;;;13.13;;
79478;SDS011;68943;49.472;17.970;2023-04-06T03:53:29;21.27;;;13.07;;
79478;SDS011;68943;49.472;17.970;2023-04-06T03:55:55;23.67;;;12.75;;
79478;SDS011;68943;49.472;17.970;2023-04-06T03:58:22;22.95;;;12.38;;
79478;SDS011;68943;49.472;17.970;2023-04-06T04:00:48;22.15;;;11.82;;
79478;SDS011;68943;49.472;17.970;2023-04-06T04:03:16;23.67;;;11.93;;
79478;SDS011;68943;49.472;17.970;2023-04-06T04:05:42;18.13;;;10.75;;
79478;SDS011;68943;49.472;17.970;2023-04-06T04:08:08;24.33;;;12.30;;
79478;SDS011;68943;49.472;17.970;2023-04-06T04:10:35;22.63;;;12.27;;
79478;SDS011;68943;49.472;17.970;2023-04-06T04:13:01;18.08;;;11.32;;
79478;SDS011;68943;49.472;17.970;2023-04-06T04:15:27;23.67;;;11.18;;
79478;SDS011;68943;49.472;17.970;2023-04-06T04:17:53;18.80;;;10.38;;
79478;SDS011;68943;49.472;17.970;2023-04-06T04:20:19;19.25;;;10.60;;
79478;SDS011;68943;49.472;17.970;2023-04-06T04:22:46;19.63;;;10.90;;
79478;SDS011;68943;49.472;17.970;2023-04-06T04:25:12;17.05;;;10.10;;
79478;SDS011;68943;49.472;17.970;2023-04-06T04:27:38;21.77;;;13.02;;
79478;SDS011;68943;49.472;17.970;2023-04-06T04:30:05;21.85;;;12.38;;
79478;SDS011;68943;49.472;17.970;2023-04-06T04:32:31;27.17;;;12.15;;
79478;SDS011;68943;49.472;17.970;2023-04-06T04:34:57;19.20;;;11.90;;
79478;SDS011;68943;49.472;17.970;2023-04-06T04:37:23;22.13;;;11.85;;
79478;SDS011;68943;49.472;17.970;2023-04-06T04:39:49;18.67;;;9.85;;
79478;SDS011;68943;49.472;17.970;2023-04-06T04:42:15;24.77;;;12.82;;
79478;SDS011;68943;49.472;17.970;2023-04-06T04:44:41;19.85;;;10.85;;
79478;SDS011;68943;49.472;17.970;2023-04-06T04:47:07;19.58;;;10.30;;
79478;SDS011;68943;49.472;17.970;2023-04-06T04:49:34;16.58;;;9.45;;
79478;SDS011;68943;49.472;17.970;2023-04-06T04:52:00;27.85;;;12.10;;
79478;SDS011;68943;49.472;17.970;2023-04-06T04:54:31;22.50;;;11.48;;
79478;SDS011;68943;49.472;17.970;2023-04-06T04:57:01;22.20;;;11.57;;
79478;SDS011;68943;49.472;17.970;2023-04-06T04:59:27;22.90;;;12.88;;
79478;SDS011;68943;49.472;17.970;2023-04-06T05:01:54;25.92;;;11.73;;
79478;SDS011;68943;49.472;17.970;2023-04-06T05:04:21;25.27;;;13.73;;
79478;SDS011;68943;49.472;17.970;2023-04-06T05:06:48;24.77;;;12.35;;
79478;SDS011;68943;49.472;17.970;2023-04-06T05:09:14;24.27;;;13.23;;
79478;SDS011;68943;49.472;17.970;2023-04-06T05:11:40;19.73;;;11.10;;
79478;SDS011;68943;49.472;17.970;2023-04-06T05:14:06;27.08;;;13.48;;
79478;SDS011;68943;49.472;17.970;2023-04-06T05:16:33;25.90;;;11.75;;
79478;SDS011;68943;49.472;17.970;2023-04-06T05:18:59;18.17;;;12.02;;
79478;SDS011;68943;49.472;17.970;2023-04-06T05:21:25;32.38;;;16.80;;
79478;SDS011;68943;49.472;17.970;2023-04-06T05:23:53;26.20;;;14.90;;
79478;SDS011;68943;49.472;17.970;2023-04-06T05:26:19;25.90;;;14.63;;
79478;SDS011;68943;49.472;17.970;2023-04-06T05:28:45;21.42;;;13.82;;
79478;SDS011;68943;49.472;17.970;2023-04-06T05:31:11;28.20;;;15.57;;
79478;SDS011;68943;49.472;17.970;2023-04-06T05:33:37;33.42;;;16.10;;
79478;SDS011;68943;49.472;17.970;2023-04-06T05:36:03;30.80;;;16.92;;
79478;SDS011;68943;49.472;17.970;2023-04-06T05:38:32;32.40;;;17.25;;
79478;SDS011;68943;49.472;17.970;2023-04-06T05:40:58;37.60;;;15.07;;
79478;SDS011;68943;49.472;17.970;2023-04-06T05:43:24;28.52;;;16.23;;
79478;SDS011;68943;49.472;17.970;2023-04-06T05:45:50;33.78;;;17.73;;
79478;SDS011;68943;49.472;17.970;2023-04-06T05:48:17;33.72;;;16.92;;
79478;SDS011;68943;49.472;17.970;2023-04-06T05:50:43;42.53;;;17.23;;
79478;SDS011;68943;49.472;17.970;2023-04-06T05:53:13;40.55;;;19.60;;
79478;SDS011;68943;49.472;17.970;2023-04-06T05:55:39;46.47;;;21.75;;
79478;SDS011;68943;49.472;17.970;2023-04-06T05:58:05;41.20;;;22.17;;
79478;SDS011;68943;49.472;17.970;2023-04-06T06:00:31;45.95;;;21.27;;
79478;SDS011;68943;49.472;17.970;2023-04-06T06:02:57;42.35;;;21.35;;
79478;SDS011;68943;49.472;17.970;2023-04-06T06:05:23;41.15;;;21.17;;
79478;SDS011;68943;49.472;17.970;2023-04-06T06:07:49;46.65;;;21.55;;
79478;SDS011;68943;49.472;17.970;2023-04-06T06:10:15;47.38;;;23.63;;
79478;SDS011;68943;49.472;17.970;2023-04-06T06:12:42;38.92;;;20.40;;
79478;SDS011;68943;49.472;17.970;2023-04-06T06:15:08;39.00;;;23.08;;
79478;SDS011;68943;49.472;17.970;2023-04-06T06:17:34;44.28;;;23.65;;
79478;SDS011;68943;49.472;17.970;2023-04-06T06:20:00;45.67;;;24.65;;
79478;SDS011;68943;49.472;17.970;2023-04-06T06:22:27;42.13;;;23.35;;
79478;SDS011;68943;49.472;17.970;2023-04-06T06:24:53;57.72;;;22.95;;
79478;SDS011;68943;49.472;17.970;2023-04-06T06:27:19;39.83;;;21.65;;
79478;SDS011;68943;49.472;17.970;2023-04-06T06:29:45;39.92;;;22.33;;
79478;SDS011;68943;49.472;17.970;2023-04-06T06:32:11;51.72;;;27.38;;
79478;SDS011;68943;49.472;17.970;2023-04-06T06:34:37;42.47;;;23.20;;
79478;SDS011;68943;49.472;17.970;2023-04-06T06:37:03;41.15;;;22.80;;
79478;SDS011;68943;49.472;17.970;2023-04-06T06:39:29;49.25;;;25.85;;
79478;SDS011;68943;49.472;17.970;2023-04-06T06:41:55;47.78;;;27.02;;
79478;SDS011;68943;49.472;17.970;2023-04-06T06:44:22;53.65;;;26.10;;
79478;SDS011;68943;49.472;17.970;2023-04-06T06:46:50;45.53;;;26.10;;
79478;SDS011;68943;49.472;17.970;2023-04-06T06:49:16;47.20;;;28.88;;
79478;SDS011;68943;49.472;17.970;2023-04-06T06:51:42;44.40;;;21.92;;
79478;SDS011;68943;49.472;17.970;2023-04-06T06:54:08;49.55;;;26.85;;
79478;SDS011;68943;49.472;17.970;2023-04-06T06:56:35;45.95;;;23.08;;
79478;SDS011;68943;49.472;17.970;2023-04-06T06:59:02;54.42;;;28.20;;
79478;SDS011;68943;49.472;17.970;2023-04-06T07:01:29;56.83;;;28.35;;
79478;SDS011;68943;49.472;17.970;2023-04-06T07:03:55;52.67;;;27.13;;
79478;SDS011;68943;49.472;17.970;2023-04-06T07:06:21;51.15;;;26.27;;
79478;SDS011;68943;49.472;17.970;2023-04-06T07:08:47;44.15;;;23.88;;
79478;SDS011;68943;49.472;17.970;2023-04-06T07:11:13;30.98;;;17.52;;
79478;SDS011;68943;49.472;17.970;2023-04-06T07:13:39;53.42;;;25.95;;
79478;SDS011;68943;49.472;17.970;2023-04-06T07:16:06;52.22;;;28.40;;
79478;SDS011;68943;49.472;17.970;2023-04-06T07:18:32;47.95;;;25.23;;
79478;SDS011;68943;49.472;17.970;2023-04-06T07:20:58;47.85;;;24.38;;
79478;SDS011;68943;49.472;17.970;2023-04-06T07:23:26;48.63;;;25.15;;
79478;SDS011;68943;49.472;17.970;2023-04-06T07:25:55;49.88;;;26.20;;
79478;SDS011;68943;49.472;17.970;2023-04-06T07:28:21;43.58;;;24.85;;
79478;SDS011;68943;49.472;17.970;2023-04-06T07:30:48;45.67;;;24.73;;
79478;SDS011;68943;49.472;17.970;2023-04-06T07:33:15;41.22;;;22.27;;
79478;SDS011;68943;49.472;17.970;2023-04-06T07:35:41;32.70;;;18.35;;
79478;SDS011;68943;49.472;17.970;2023-04-06T07:38:07;45.80;;;22.40;;
79478;SDS011;68943;49.472;17.970;2023-04-06T07:40:33;37.25;;;22.27;;
79478;SDS011;68943;49.472;17.970;2023-04-06T07:42:59;38.53;;;17.83;;
79478;SDS011;68943;49.472;17.970;2023-04-06T07:45:26;39.08;;;21.75;;
79478;SDS011;68943;49.472;17.970;2023-04-06T07:47:52;36.25;;;21.05;;
79478;SDS011;68943;49.472;17.970;2023-04-06T07:50:18;37.47;;;22.83;;
79478;SDS011;68943;49.472;17.970;2023-04-06T07:52:45;28.75;;;13.07;;
79478;SDS011;68943;49.472;17.970;2023-04-06T07:55:11;28.52;;;17.60;;
79478;SDS011;68943;49.472;17.970;2023-04-06T07:57:37;19.85;;;12.18;;
79478;SDS011;68943;49.472;17.970;2023-04-06T08:00:03;24.08;;;14.27;;
79478;SDS011;68943;49.472;17.970;2023-04-06T08:02:31;26.98;;;15.48;;
79478;SDS011;68943;49.472;17.970;2023-04-06T08:04:57;28.55;;;15.05;;
79478;SDS011;68943;49.472;17.970;2023-04-06T08:07:23;19.38;;;11.40;;
79478;SDS011;68943;49.472;17.970;2023-04-06T08:09:49;20.98;;;10.23;;
79478;SDS011;68943;49.472;17.970;2023-04-06T08:12:16;21.23;;;13.32;;
79478;SDS011;68943;49.472;17.970;2023-04-06T08:14:42;20.98;;;11.98;;
79478;SDS011;68943;49.472;17.970;2023-04-06T08:17:08;27.25;;;13.60;;
79478;SDS011;68943;49.472;17.970;2023-04-06T08:19:34;15.13;;;8.25;;
79478;SDS011;68943;49.472;17.970;2023-04-06T08:22:00;20.85;;;8.75;;
79478;SDS011;68943;49.472;17.970;2023-04-06T08:24:27;26.27;;;13.52;;
79478;SDS011;68943;49.472;17.970;2023-04-06T08:26:53;17.10;;;10.10;;
79478;SDS011;68943;49.472;17.970;2023-04-06T08:29:19;19.45;;;10.73;;
79478;SDS011;68943;49.472;17.970;2023-04-06T08:31:45;22.73;;;12.68;;
79478;SDS011;68943;49.472;17.970;2023-04-06T08:34:11;16.58;;;9.45;;
79478;SDS011;68943;49.472;17.970;2023-04-06T08:36:38;19.27;;;10.82;;
79478;SDS011;68943;49.472;17.970;2023-04-06T08:39:04;24.60;;;13.10;;
79478;SDS011;68943;49.472;17.970;2023-04-06T08:41:30;23.70;;;9.35;;
79478;SDS011;68943;49.472;17.970;2023-04-06T08:44:00;13.90;;;7.68;;
79478;SDS011;68943;49.472;17.970;2023-04-06T08:46:29;12.02;;;7.43;;
79478;SDS011;68943;49.472;17.970;2023-04-06T08:48:58;18.23;;;10.07;;
79478;SDS011;68943;49.472;17.970;2023-04-06T08:51:24;16.77;;;10.38;;
79478;SDS011;68943;49.472;17.970;2023-04-06T08:53:52;15.27;;;8.40;;
79478;SDS011;68943;49.472;17.970;2023-04-06T08:56:19;15.85;;;9.45;;
79478;SDS011;68943;49.472;17.970;2023-04-06T08:58:46;19.65;;;10.27;;
79478;SDS011;68943;49.472;17.970;2023-04-06T09:01:13;15.77;;;8.90;;
79478;SDS011;68943;49.472;17.970;2023-04-06T09:03:40;14.00;;;9.05;;
79478;SDS011;68943;49.472;17.970;2023-04-06T09:06:07;12.55;;;7.25;;
79478;SDS011;68943;49.472;17.970;2023-04-06T09:08:34;19.40;;;10.40;;
79478;SDS011;68943;49.472;17.970;2023-04-06T09:11:01;23.02;;;11.77;;
79478;SDS011;68943;49.472;17.970;2023-04-06T09:13:27;16.27;;;9.70;;
79478;SDS011;68943;49.472;17.970;2023-04-06T09:16:00;21.75;;;11.00;;
79478;SDS011;68943;49.472;17.970;2023-04-06T09:18:30;21.73;;;12.30;;
79478;SDS011;68943;49.472;17.970;2023-04-06T09:21:03;16.92;;;10.68;;
79478;SDS011;68943;49.472;17.970;2023-04-06T09:23:30;13.18;;;8.45;;
79478;SDS011;68943;49.472;17.970;2023-04-06T09:28:46;14.93;;;9.60;;
79478;SDS011;68943;49.472;17.970;2023-04-06T09:31:13;14.95;;;7.60;;
79478;SDS011;68943;49.472;17.970;2023-04-06T09:33:40;16.13;;;8.45;;
79478;SDS011;68943;49.472;17.970;2023-04-06T09:36:06;20.60;;;11.27;;
79478;SDS011;68943;49.472;17.970;2023-04-06T09:38:36;13.23;;;8.13;;
79478;SDS011;68943;49.472;17.970;2023-04-06T09:41:02;13.25;;;8.65;;
79478;SDS011;68943;49.472;17.970;2023-04-06T09:43:31;19.05;;;8.98;;
79478;SDS011;68943;49.472;17.970;2023-04-06T09:46:00;15.18;;;9.70;;
79478;SDS011;68943;49.472;17.970;2023-04-06T09:48:28;16.45;;;9.10;;
79478;SDS011;68943;49.472;17.970;2023-04-06T09:50:58;14.38;;;7.60;;
79478;SDS011;68943;49.472;17.970;2023-04-06T09:53:25;15.07;;;9.30;;
79478;SDS011;68943;49.472;17.970;2023-04-06T09:55:52;17.77;;;8.88;;
79478;SDS011;68943;49.472;17.970;2023-04-06T09:58:20;16.90;;;10.48;;
79478;SDS011;68943;49.472;17.970;2023-04-06T10:00:54;16.23;;;9.10;;
79478;SDS011;68943;49.472;17.970;2023-04-06T10:03:36;13.40;;;10.27;;
79478;SDS011;68943;49.472;17.970;2023-04-06T10:06:04;15.57;;;8.35;;
79478;SDS011;68943;49.472;17.970;2023-04-06T10:08:31;15.43;;;9.73;;
79478;SDS011;68943;49.472;17.970;2023-04-06T10:10:59;16.90;;;9.50;;
79478;SDS011;68943;49.472;17.970;2023-04-06T10:13:25;15.40;;;8.50;;
79478;SDS011;68943;49.472;17.970;2023-04-06T10:15:52;19.00;;;11.18;;
79478;SDS011;68943;49.472;17.970;2023-04-06T10:18:18;13.88;;;8.98;;
79478;SDS011;68943;49.472;17.970;2023-04-06T10:20:49;13.77;;;8.48;;
79478;SDS011;68943;49.472;17.970;2023-04-06T10:25:57;17.15;;;8.98;;
79478;SDS011;68943;49.472;17.970;2023-04-06T10:28:26;13.65;;;9.25;;
79478;SDS011;68943;49.472;17.970;2023-04-06T10:30:59;16.42;;;8.75;;
79478;SDS011;68943;49.472;17.970;2023-04-06T10:33:25;14.07;;;9.13;;
79478;SDS011;68943;49.472;17.970;2023-04-06T10:35:51;11.55;;;6.97;;
79478;SDS011;68943;49.472;17.970;2023-04-06T10:38:18;9.57;;;6.45;;
79478;SDS011;68943;49.472;17.970;2023-04-06T10:40:50;13.45;;;7.82;;
79478;SDS011;68943;49.472;17.970;2023-04-06T10:43:20;12.50;;;7.43;;
79478;SDS011;68943;49.472;17.970;2023-04-06T10:45:54;9.70;;;7.22;;
79478;SDS011;68943;49.472;17.970;2023-04-06T10:48:20;14.80;;;8.40;;
79478;SDS011;68943;49.472;17.970;2023-04-06T10:50:47;12.80;;;6.30;;
79478;SDS011;68943;49.472;17.970;2023-04-06T10:53:22;11.52;;;7.75;;
79478;SDS011;68943;49.472;17.970;2023-04-06T10:55:52;12.65;;;7.70;;
79478;SDS011;68943;49.472;17.970;2023-04-06T10:58:18;11.98;;;8.93;;
79478;SDS011;68943;49.472;17.970;2023-04-06T11:00:45;12.40;;;7.50;;
79478;SDS011;68943;49.472;17.970;2023-04-06T11:03:11;11.63;;;7.57;;
79478;SDS011;68943;49.472;17.970;2023-04-06T11:05:38;14.05;;;8.25;;
79478;SDS011;68943;49.472;17.970;2023-04-06T11:08:04;12.15;;;8.77;;
79478;SDS011;68943;49.472;17.970;2023-04-06T11:10:30;11.60;;;7.45;;
79478;SDS011;68943;49.472;17.970;2023-04-06T11:12:56;12.15;;;7.53;;
79478;SDS011;68943;49.472;17.970;2023-04-06T11:15:22;10.20;;;8.02;;
79478;SDS011;68943;49.472;17.970;2023-04-06T11:17:49;14.27;;;9.20;;
79478;SDS011;68943;49.472;17.970;2023-04-06T11:20:16;22.00;;;10.15;;
79478;SDS011;68943;49.472;17.970;2023-04-06T11:22:52;11.77;;;8.80;;
79478;SDS011;68943;49.472;17.970;2023-04-06T11:25:18;12.88;;;8.15;;
79478;SDS011;68943;49.472;17.970;2023-04-06T11:27:48;12.02;;;7.60;;
79478;SDS011;68943;49.472;17.970;2023-04-06T11:30:16;15.35;;;9.55;;
79478;SDS011;68943;49.472;17.970;2023-04-06T11:32:43;11.35;;;7.80;;
79478;SDS011;68943;49.472;17.970;2023-04-06T11:35:21;11.07;;;8.02;;
79478;SDS011;68943;49.472;17.970;2023-04-06T11:37:51;18.80;;;9.70;;
79478;SDS011;68943;49.472;17.970;2023-04-06T11:40:20;9.10;;;7.35;;
79478;SDS011;68943;49.472;17.970;2023-04-06T11:42:54;14.00;;;8.52;;
79478;SDS011;68943;49.472;17.970;2023-04-06T11:45:20;14.07;;;8.85;;
79478;SDS011;68943;49.472;17.970;2023-04-06T11:47:54;12.27;;;9.25;;
79478;SDS011;68943;49.472;17.970;2023-04-06T11:50:20;13.07;;;8.82;;
79478;SDS011;68943;49.472;17.970;2023-04-06T11:52:47;13.98;;;10.68;;
79478;SDS011;68943;49.472;17.970;2023-04-06T11:55:23;11.38;;;7.57;;
79478;SDS011;68943;49.472;17.970;2023-04-06T11:57:49;11.20;;;7.60;;
79478;SDS011;68943;49.472;17.970;2023-04-06T12:00:16;13.88;;;7.50;;
79478;SDS011;68943;49.472;17.970;2023-04-06T12:02:46;20.33;;;11.38;;
79478;SDS011;68943;49.472;17.970;2023-04-06T12:05:12;16.95;;;9.73;;
79478;SDS011;68943;49.472;17.970;2023-04-06T12:07:39;14.85;;;8.25;;
79478;SDS011;68943;49.472;17.970;2023-04-06T12:10:05;14.35;;;8.80;;
79478;SDS011;68943;49.472;17.970;2023-04-06T12:12:32;11.65;;;8.20;;
79478;SDS011;68943;49.472;17.970;2023-04-06T12:14:58;18.50;;;9.52;;
79478;SDS011;68943;49.472;17.970;2023-04-06T12:17:25;14.27;;;10.02;;
79478;SDS011;68943;49.472;17.970;2023-04-06T12:19:51;15.30;;;11.05;;
79478;SDS011;68943;49.472;17.970;2023-04-06T12:22:20;13.73;;;8.73;;
79478;SDS011;68943;49.472;17.970;2023-04-06T12:24:47;14.82;;;10.02;;
79478;SDS011;68943;49.472;17.970;2023-04-06T12:27:13;15.43;;;10.70;;
79478;SDS011;68943;49.472;17.970;2023-04-06T12:29:39;15.93;;;10.05;;
79478;SDS011;68943;49.472;17.970;2023-04-06T12:32:05;14.93;;;10.50;;
79478;SDS011;68943;49.472;17.970;2023-04-06T12:34:31;13.38;;;9.35;;
79478;SDS011;68943;49.472;17.970;2023-04-06T12:36:58;11.50;;;8.23;;
79478;SDS011;68943;49.472;17.970;2023-04-06T12:39:24;15.30;;;10.75;;
79478;SDS011;68943;49.472;17.970;2023-04-06T12:41:52;15.55;;;9.75;;
79478;SDS011;68943;49.472;17.970;2023-04-06T12:44:19;10.70;;;7.70;;
79478;SDS011;68943;49.472;17.970;2023-04-06T12:46:45;12.27;;;9.30;;
79478;SDS011;68943;49.472;17.970;2023-04-06T12:49:11;13.15;;;8.13;;
79478;SDS011;68943;49.472;17.970;2023-04-06T12:51:37;14.45;;;8.45;;
79478;SDS011;68943;49.472;17.970;2023-04-06T12:54:03;13.18;;;8.52;;
79478;SDS011;68943;49.472;17.970;2023-04-06T12:56:30;12.60;;;8.20;;
79478;SDS011;68943;49.472;17.970;2023-04-06T12:58:58;12.98;;;8.18;;
79478;SDS011;68943;49.472;17.970;2023-04-06T13:01:25;8.15;;;6.32;;
79478;SDS011;68943;49.472;17.970;2023-04-06T13:03:52;12.00;;;8.30;;
79478;SDS011;68943;49.472;17.970;2023-04-06T13:06:18;12.55;;;7.50;;
79478;SDS011;68943;49.472;17.970;2023-04-06T13:08:46;12.75;;;8.27;;
79478;SDS011;68943;49.472;17.970;2023-04-06T13:11:15;11.40;;;7.85;;
79478;SDS011;68943;49.472;17.970;2023-04-06T13:13:41;10.75;;;6.65;;
79478;SDS011;68943;49.472;17.970;2023-04-06T13:16:07;13.57;;;7.50;;
79478;SDS011;68943;49.472;17.970;2023-04-06T13:18:34;10.77;;;6.50;;
79478;SDS011;68943;49.472;17.970;2023-04-06T13:21:03;11.82;;;7.97;;
79478;SDS011;68943;49.472;17.970;2023-04-06T13:23:32;13.10;;;7.50;;
79478;SDS011;68943;49.472;17.970;2023-04-06T13:26:04;12.38;;;7.63;;
79478;SDS011;68943;49.472;17.970;2023-04-06T13:28:30;11.27;;;6.47;;
79478;SDS011;68943;49.472;17.970;2023-04-06T13:30:57;11.23;;;7.13;;
79478;SDS011;68943;49.472;17.970;2023-04-06T13:33:28;12.63;;;7.07;;
79478;SDS011;68943;49.472;17.970;2023-04-06T13:35:54;8.23;;;6.07;;
79478;SDS011;68943;49.472;17.970;2023-04-06T13:38:21;8.48;;;5.72;;
79478;SDS011;68943;49.472;17.970;2023-04-06T13:40:49;12.98;;;7.70;;
79478;SDS011;68943;49.472;17.970;2023-04-06T13:43:15;9.30;;;6.20;;
79478;SDS011;68943;49.472;17.970;2023-04-06T13:45:48;9.88;;;6.70;;
79478;SDS011;68943;49.472;17.970;2023-04-06T13:48:14;10.82;;;7.00;;
79478;SDS011;68943;49.472;17.970;2023-04-06T13:50:40;9.70;;;6.88;;
79478;SDS011;68943;49.472;17.970;2023-04-06T13:53:06;13.00;;;8.82;;
79478;SDS011;68943;49.472;17.970;2023-04-06T13:55:32;10.82;;;6.93;;
79478;SDS011;68943;49.472;17.970;2023-04-06T13:58:02;12.27;;;6.55;;
79478;SDS011;68943;49.472;17.970;2023-04-06T14:00:28;10.05;;;6.88;;
79478;SDS011;68943;49.472;17.970;2023-04-06T14:02:54;9.35;;;6.95;;
79478;SDS011;68943;49.472;17.970;2023-04-06T14:05:20;9.00;;;6.15;;
79478;SDS011;68943;49.472;17.970;2023-04-06T14:07:47;9.65;;;6.75;;
79478;SDS011;68943;49.472;17.970;2023-04-06T14:10:13;9.43;;;6.60;;
79478;SDS011;68943;49.472;17.970;2023-04-06T14:12:43;9.25;;;6.72;;
79478;SDS011;68943;49.472;17.970;2023-04-06T14:15:10;10.93;;;6.70;;
79478;SDS011;68943;49.472;17.970;2023-04-06T14:17:38;10.10;;;6.57;;